createdAt,value
2019-01-05T00:00:17.583Z,0
2019-01-05T00:01:27.422Z,0
2019-01-05T00:02:37.512Z,0
2019-01-05T00:03:47.593Z,0
2019-01-05T00:04:57.658Z,0
2019-01-05T00:06:08.006Z,0
2019-01-05T00:07:18.092Z,0
2019-01-05T00:08:28.160Z,0
2019-01-05T00:09:39.138Z,0
2019-01-05T00:10:49.194Z,0
2019-01-05T00:11:59.270Z,0
2019-01-05T00:13:09.351Z,0
2019-01-05T00:14:19.418Z,0
2019-01-05T00:15:29.518Z,0
2019-01-05T00:16:39.328Z,0
2019-01-05T00:17:49.392Z,0
2019-01-05T00:18:59.472Z,0
2019-01-05T00:20:09.880Z,0
2019-01-05T00:21:24.479Z,0
2019-01-05T00:22:34.570Z,0
2019-01-05T00:23:44.774Z,0
2019-01-05T00:24:54.321Z,0
2019-01-05T00:26:03.878Z,0
2019-01-05T00:27:13.933Z,0
2019-01-05T00:28:24.002Z,0
2019-01-05T00:29:34.088Z,0
2019-01-05T00:30:44.154Z,0
2019-01-05T00:31:54.223Z,0
2019-01-05T00:33:04.296Z,0
2019-01-05T00:34:14.392Z,0
2019-01-05T00:35:24.513Z,0
2019-01-05T00:36:34.584Z,0
2019-01-05T00:37:44.656Z,0
2019-01-05T00:38:54.717Z,0
2019-01-05T00:40:05.425Z,0
2019-01-05T00:41:15.502Z,0
2019-01-05T00:42:25.565Z,0
2019-01-05T00:43:35.631Z,0
2019-01-05T00:44:45.482Z,0
2019-01-05T00:45:55.554Z,0
2019-01-05T00:47:05.365Z,0
2019-01-05T00:48:15.431Z,0
2019-01-05T00:49:25.491Z,0
2019-01-05T00:50:35.030Z,0
2019-01-05T00:51:45.073Z,0
2019-01-05T00:52:55.115Z,0
2019-01-05T00:54:04.947Z,0
2019-01-05T00:55:14.787Z,0
2019-01-05T00:56:24.607Z,0
2019-01-05T00:57:34.679Z,0
2019-01-05T00:58:44.529Z,0
2019-01-05T00:59:54.354Z,0
2019-01-05T01:01:04.457Z,0
2019-01-05T01:02:14.496Z,0
2019-01-05T01:03:24.570Z,0
2019-01-05T01:04:34.664Z,0
2019-01-05T01:05:44.726Z,0
2019-01-05T01:06:54.546Z,0
2019-01-05T01:08:04.611Z,0
2019-01-05T01:09:14.783Z,0
2019-01-05T01:10:24.839Z,0
2019-01-05T01:11:34.662Z,0
2019-01-05T01:12:44.723Z,0
2019-01-05T01:13:54.526Z,0
2019-01-05T01:15:04.606Z,0
2019-01-05T01:16:14.408Z,0
2019-01-05T01:17:24.491Z,0
2019-01-05T01:18:34.554Z,0
2019-01-05T01:19:44.361Z,0
2019-01-05T01:20:54.442Z,0
2019-01-05T01:22:04.503Z,0
2019-01-05T01:23:14.322Z,0
2019-01-05T01:24:24.127Z,0
2019-01-05T01:25:33.918Z,0
2019-01-05T01:26:43.972Z,0
2019-01-05T01:27:54.029Z,0
2019-01-05T01:29:04.101Z,0
2019-01-05T01:30:14.160Z,0
2019-01-05T01:31:24.243Z,0
2019-01-05T01:32:34.066Z,0
2019-01-05T01:33:44.131Z,0
2019-01-05T01:34:54.194Z,0
2019-01-05T01:36:03.986Z,0
2019-01-05T01:37:14.035Z,0
2019-01-05T01:38:24.149Z,0
2019-01-05T01:39:34.194Z,0
2019-01-05T01:40:44.258Z,0
2019-01-05T01:41:54.353Z,0
2019-01-05T01:43:04.402Z,0
2019-01-05T01:44:14.218Z,0
2019-01-05T01:45:24.069Z,0
2019-01-05T01:46:33.872Z,0
2019-01-05T01:47:43.928Z,0
2019-01-05T01:48:53.996Z,0
2019-01-05T01:50:04.066Z,0
2019-01-05T01:51:13.859Z,0
2019-01-05T01:52:23.927Z,0
2019-01-05T01:53:34.030Z,0
2019-01-05T01:54:44.095Z,0
2019-01-05T01:55:54.160Z,0
2019-01-05T01:57:04.281Z,0
2019-01-05T01:58:14.107Z,0
2019-01-05T01:59:24.180Z,0
2019-01-05T02:00:33.998Z,0
2019-01-05T02:01:44.055Z,0
2019-01-05T02:02:54.136Z,0
2019-01-05T02:04:04.212Z,0
2019-01-05T02:05:14.287Z,0
2019-01-05T02:06:23.845Z,0
2019-01-05T02:07:33.904Z,0
2019-01-05T02:08:43.731Z,0
2019-01-05T02:09:53.793Z,0
2019-01-05T02:11:03.859Z,0
2019-01-05T02:12:13.651Z,0
2019-01-05T02:13:23.701Z,0
2019-01-05T02:14:33.503Z,0
2019-01-05T02:15:43.554Z,0
2019-01-05T02:16:53.372Z,0
2019-01-05T02:18:03.434Z,0
2019-01-05T02:19:13.506Z,0
2019-01-05T02:20:23.313Z,0
2019-01-05T02:21:32.863Z,0
2019-01-05T02:22:42.937Z,0
2019-01-05T02:23:52.999Z,0
2019-01-05T02:25:03.067Z,0
2019-01-05T02:26:13.178Z,0
2019-01-05T02:27:22.996Z,0
2019-01-05T02:28:33.058Z,0
2019-01-05T02:29:42.854Z,0
2019-01-05T02:30:52.410Z,0
2019-01-05T02:32:02.498Z,0
2019-01-05T02:33:12.559Z,0
2019-01-05T02:34:22.647Z,0
2019-01-05T02:35:32.760Z,0
2019-01-05T02:36:42.820Z,0
2019-01-05T02:37:52.628Z,0
2019-01-05T02:39:02.698Z,0
2019-01-05T02:40:12.505Z,0
2019-01-05T02:41:22.567Z,0
2019-01-05T02:42:32.634Z,0
2019-01-05T02:43:42.682Z,0
2019-01-05T02:44:52.743Z,0
2019-01-05T02:46:02.811Z,0
2019-01-05T02:47:12.870Z,0
2019-01-05T02:48:22.683Z,0
2019-01-05T02:49:32.851Z,0
2019-01-05T02:50:42.651Z,0
2019-01-05T02:51:52.441Z,0
2019-01-05T02:53:01.995Z,0
2019-01-05T02:54:12.112Z,0
2019-01-05T02:55:22.163Z,0
2019-01-05T02:56:31.704Z,0
2019-01-05T02:57:41.769Z,0
2019-01-05T02:58:51.578Z,0
2019-01-05T03:00:01.771Z,0
2019-01-05T03:01:11.826Z,0
2019-01-05T03:02:21.613Z,0
2019-01-05T03:34:49.477Z,0
2019-01-05T03:35:59.533Z,0
2019-01-05T03:37:09.096Z,0
2019-01-05T03:38:19.145Z,0
2019-01-05T03:39:29.215Z,0
2019-01-05T03:40:39.321Z,0
2019-01-05T03:41:49.399Z,0
2019-01-05T03:42:59.454Z,0
2019-01-05T03:44:09.525Z,0
2019-01-05T03:45:19.592Z,0
2019-01-05T03:46:29.649Z,0
2019-01-05T03:47:39.698Z,0
2019-01-05T03:48:49.487Z,0
2019-01-05T03:49:59.529Z,0
2019-01-05T03:51:09.347Z,0
2019-01-05T03:52:20.469Z,0
2019-01-05T03:53:30.309Z,0
2019-01-05T03:54:40.172Z,0
2019-01-05T03:55:50.239Z,0
2019-01-05T03:57:00.318Z,0
2019-01-05T03:58:10.412Z,0
2019-01-05T03:59:20.486Z,0
2019-01-05T04:00:30.306Z,0
2019-01-05T04:01:40.437Z,0
2019-01-05T04:02:50.250Z,0
2019-01-05T04:04:00.760Z,0
2019-01-05T04:05:10.834Z,0
2019-01-05T04:06:20.884Z,0
2019-01-05T04:07:30.934Z,0
2019-01-05T04:08:41.009Z,0
2019-01-05T04:09:51.074Z,0
2019-01-05T04:11:02.240Z,0
2019-01-05T04:12:12.085Z,0
2019-01-05T04:13:22.157Z,0
2019-01-05T04:14:32.208Z,0
2019-01-05T04:15:42.261Z,0
2019-01-05T04:16:52.094Z,0
2019-01-05T04:18:02.151Z,0
2019-01-05T04:19:12.222Z,0
2019-01-05T04:20:22.043Z,0
2019-01-05T04:21:32.155Z,0
2019-01-05T04:22:42.266Z,0
2019-01-05T04:23:52.317Z,0
2019-01-05T04:25:02.368Z,0
2019-01-05T04:26:12.417Z,0
2019-01-05T04:27:22.493Z,0
2019-01-05T04:28:32.603Z,0
2019-01-05T04:29:42.632Z,0
2019-01-05T04:30:52.685Z,0
2019-01-05T04:32:02.478Z,0
2019-01-05T04:33:12.545Z,0
2019-01-05T04:34:22.599Z,0
2019-01-05T04:35:32.406Z,0
2019-01-05T04:36:42.473Z,0
2019-01-05T04:37:52.534Z,0
2019-01-05T04:39:02.711Z,0
2019-01-05T04:40:12.508Z,0
2019-01-05T04:41:22.317Z,0
2019-01-05T04:42:32.389Z,0
2019-01-05T04:43:42.464Z,0
2019-01-05T04:44:52.278Z,0
2019-01-05T04:46:02.341Z,0
2019-01-05T04:47:12.397Z,0
2019-01-05T04:48:22.471Z,0
2019-01-05T04:49:32.517Z,0
2019-01-05T04:50:42.569Z,0
2019-01-05T04:51:52.633Z,0
2019-01-05T04:53:04.266Z,0
2019-01-05T04:54:14.330Z,0
2019-01-05T04:55:24.118Z,0
2019-01-05T04:56:34.177Z,0
2019-01-05T04:57:44.003Z,0
2019-01-05T04:58:54.058Z,0
2019-01-05T05:00:04.336Z,0
2019-01-05T05:01:14.600Z,0
2019-01-05T05:02:24.409Z,0
2019-01-05T05:03:34.222Z,0
2019-01-05T05:04:44.030Z,0
2019-01-05T05:05:53.826Z,0
2019-01-05T05:07:03.969Z,0
2019-01-05T05:08:14.129Z,0
2019-01-05T05:09:24.172Z,0
2019-01-05T05:10:33.725Z,0
2019-01-05T05:11:43.801Z,0
2019-01-05T05:12:53.862Z,0
2019-01-05T05:14:03.968Z,0
2019-01-05T05:15:14.044Z,0
2019-01-05T05:16:23.832Z,0
2019-01-05T05:17:33.885Z,0
2019-01-05T05:18:43.949Z,0
2019-01-05T05:19:53.992Z,0
2019-01-05T05:21:04.294Z,0
2019-01-05T05:22:14.375Z,0
2019-01-05T05:23:24.430Z,0
2019-01-05T05:24:34.488Z,0
2019-01-05T05:25:44.534Z,0
2019-01-05T05:26:54.581Z,0
2019-01-05T05:28:04.719Z,0
2019-01-05T05:29:14.776Z,0
2019-01-05T05:30:24.585Z,0
2019-01-05T05:31:34.635Z,0
2019-01-05T05:32:44.696Z,0
2019-01-05T05:33:54.749Z,0
2019-01-05T05:35:04.594Z,0
2019-01-05T05:36:14.772Z,0
2019-01-05T05:37:24.832Z,0
2019-01-05T05:38:34.890Z,0
2019-01-05T05:39:44.713Z,0
2019-01-05T05:40:54.263Z,0
2019-01-05T05:42:04.447Z,0
2019-01-05T05:43:14.376Z,0
2019-01-05T05:44:24.180Z,0
2019-01-05T05:45:34.234Z,0
2019-01-05T05:46:44.038Z,0
2019-01-05T05:47:54.084Z,0
2019-01-05T05:49:04.181Z,0
2019-01-05T05:50:14.000Z,0
2019-01-05T05:51:23.801Z,0
2019-01-05T05:52:33.838Z,0
2019-01-05T05:53:43.911Z,0
2019-01-05T05:54:53.721Z,0
2019-01-05T05:56:03.542Z,0
2019-01-05T05:57:13.368Z,0
2019-01-05T05:58:23.434Z,0
2019-01-05T05:59:33.496Z,0
2019-01-05T06:00:43.561Z,0
2019-01-05T06:01:53.353Z,0
2019-01-05T06:03:03.398Z,0
2019-01-05T06:04:13.461Z,0
2019-01-05T06:05:23.528Z,0
2019-01-05T06:06:33.638Z,0
2019-01-05T06:07:43.427Z,0
2019-01-05T06:08:53.495Z,0
2019-01-05T06:10:04.251Z,0
2019-01-05T06:11:14.401Z,0
2019-01-05T06:12:24.998Z,0
2019-01-05T06:13:35.053Z,0
2019-01-05T06:14:45.106Z,0
2019-01-05T06:15:54.939Z,0
2019-01-05T06:17:06.655Z,0
2019-01-05T06:18:16.717Z,0
2019-01-05T06:19:26.533Z,0
2019-01-05T06:20:36.603Z,4
2019-01-05T06:21:46.654Z,4
2019-01-05T06:22:56.482Z,0
2019-01-05T06:24:06.554Z,0
2019-01-05T06:25:16.626Z,4
2019-01-05T06:26:26.171Z,4
2019-01-05T06:27:36.212Z,0
2019-01-05T06:28:46.288Z,4
2019-01-05T06:29:56.355Z,8
2019-01-05T06:31:06.404Z,4
2019-01-05T06:32:16.473Z,8
2019-01-05T06:33:26.568Z,8
2019-01-05T06:34:36.642Z,8
2019-01-05T06:35:46.697Z,8
2019-01-05T06:36:56.750Z,8
2019-01-05T06:38:06.302Z,8
2019-01-05T06:39:16.346Z,8
2019-01-05T06:40:26.178Z,12
2019-01-05T06:41:36.239Z,12
2019-01-05T06:42:46.301Z,12
2019-01-05T06:43:56.386Z,16
2019-01-05T06:45:06.447Z,16
2019-01-05T06:46:16.507Z,20
2019-01-05T06:47:26.325Z,24
2019-01-05T06:48:36.116Z,28
2019-01-05T06:49:46.163Z,28
2019-01-05T06:50:55.982Z,28
2019-01-05T06:52:06.034Z,32
2019-01-05T06:53:15.824Z,40
2019-01-05T06:54:25.855Z,40
2019-01-05T06:55:35.643Z,44
2019-01-05T06:56:45.718Z,48
2019-01-05T06:57:56.323Z,48
2019-01-05T06:59:06.466Z,56
2019-01-05T07:00:17.115Z,56
2019-01-05T07:01:27.169Z,56
2019-01-05T07:02:36.962Z,56
2019-01-05T07:03:47.027Z,60
2019-01-05T07:04:57.095Z,60
2019-01-05T07:06:07.166Z,64
2019-01-05T07:07:16.977Z,68
2019-01-05T07:08:27.030Z,76
2019-01-05T07:09:36.843Z,72
2019-01-05T07:10:46.924Z,80
2019-01-05T07:11:56.721Z,80
2019-01-05T07:13:06.790Z,88
2019-01-05T07:14:16.836Z,96
2019-01-05T07:15:26.655Z,104
2019-01-05T07:16:36.468Z,104
2019-01-05T07:17:46.506Z,108
2019-01-05T07:18:56.561Z,120
2019-01-05T07:20:06.642Z,136
2019-01-05T07:21:16.415Z,144
2019-01-05T07:22:26.518Z,160
2019-01-05T07:23:36.315Z,176
2019-01-05T07:24:46.375Z,180
2019-01-05T07:25:56.428Z,176
2019-01-05T07:27:06.491Z,176
2019-01-05T07:28:16.562Z,176
2019-01-05T07:29:26.624Z,200
2019-01-05T07:30:36.680Z,212
2019-01-05T07:31:46.745Z,236
2019-01-05T07:32:56.789Z,280
2019-01-05T07:34:06.847Z,304
2019-01-05T07:35:16.906Z,332
2019-01-05T07:36:26.458Z,332
2019-01-05T07:37:36.534Z,344
2019-01-05T07:38:46.610Z,336
2019-01-05T07:39:56.705Z,316
2019-01-05T07:41:06.775Z,320
2019-01-05T07:42:16.608Z,296
2019-01-05T07:43:26.680Z,296
2019-01-05T07:44:36.508Z,296
2019-01-05T07:45:46.565Z,288
2019-01-05T07:46:56.625Z,308
2019-01-05T07:48:06.672Z,320
2019-01-05T07:49:17.065Z,332
2019-01-05T07:50:26.869Z,328
2019-01-05T07:51:36.928Z,316
2019-01-05T07:52:47.006Z,292
2019-01-05T07:53:57.080Z,272
2019-01-05T07:55:07.125Z,252
2019-01-05T07:56:16.942Z,252
2019-01-05T07:57:26.759Z,260
2019-01-05T07:58:36.823Z,288
2019-01-05T07:59:46.607Z,316
2019-01-05T08:00:57.181Z,340
2019-01-05T08:02:06.990Z,348
2019-01-05T08:03:17.054Z,332
2019-01-05T08:04:26.859Z,320
2019-01-05T08:05:36.943Z,312
2019-01-05T08:06:47.013Z,308
2019-01-05T08:07:56.564Z,300
2019-01-05T08:09:06.647Z,292
2019-01-05T08:10:16.699Z,292
2019-01-05T08:11:26.536Z,308
2019-01-05T08:12:36.592Z,320
2019-01-05T08:13:46.643Z,332
2019-01-05T08:14:56.726Z,336
2019-01-05T08:16:07.171Z,332
2019-01-05T08:17:17.341Z,360
2019-01-05T08:18:27.163Z,372
2019-01-05T08:19:37.243Z,384
2019-01-05T08:20:47.304Z,420
2019-01-05T08:21:57.368Z,420
2019-01-05T08:23:07.524Z,416
2019-01-05T08:24:17.598Z,396
2019-01-05T08:25:27.656Z,384
2019-01-05T08:26:37.476Z,380
2019-01-05T08:27:47.032Z,392
2019-01-05T08:28:56.583Z,400
2019-01-05T08:30:08.140Z,380
2019-01-05T08:31:18.218Z,388
2019-01-05T08:32:28.295Z,376
2019-01-05T08:33:38.105Z,384
2019-01-05T08:34:47.639Z,364
2019-01-05T08:35:57.700Z,336
2019-01-05T08:37:07.792Z,360
2019-01-05T08:38:17.613Z,376
2019-01-05T08:39:27.686Z,388
2019-01-05T08:40:37.749Z,408
2019-01-05T08:41:47.806Z,428
2019-01-05T08:42:57.884Z,448
2019-01-05T08:44:08.562Z,468
2019-01-05T08:45:18.375Z,500
2019-01-05T08:46:28.422Z,532
2019-01-05T08:47:38.233Z,564
2019-01-05T08:48:48.293Z,608
2019-01-05T08:49:58.765Z,600
2019-01-05T08:51:08.869Z,592
2019-01-05T08:52:18.962Z,600
2019-01-05T08:53:29.002Z,608
2019-01-05T08:54:39.064Z,576
2019-01-05T08:55:49.124Z,564
2019-01-05T08:57:03.827Z,588
2019-01-05T08:58:13.894Z,640
2019-01-05T08:59:23.953Z,696
2019-01-05T09:00:34.021Z,724
2019-01-05T09:01:44.069Z,736
2019-01-05T09:02:54.116Z,732
2019-01-05T09:04:03.933Z,720
2019-01-05T09:05:14.077Z,704
2019-01-05T09:06:23.874Z,680
2019-01-05T09:07:33.709Z,628
2019-01-05T09:08:43.796Z,656
2019-01-05T09:09:53.617Z,684
2019-01-05T09:11:03.693Z,656
2019-01-05T09:12:13.840Z,680
2019-01-05T09:13:23.909Z,700
2019-01-05T09:14:33.968Z,716
2019-01-05T09:15:43.762Z,692
2019-01-05T09:16:53.588Z,660
2019-01-05T09:18:03.637Z,612
2019-01-05T09:19:13.713Z,560
2019-01-05T09:20:23.770Z,548
2019-01-05T09:21:33.817Z,520
2019-01-05T09:22:43.880Z,500
2019-01-05T09:23:53.941Z,496
2019-01-05T09:25:04.017Z,508
2019-01-05T09:26:13.820Z,520
2019-01-05T09:27:27.922Z,536
2019-01-05T09:28:37.753Z,572
2019-01-05T09:29:47.309Z,572
2019-01-05T09:30:57.383Z,584
2019-01-05T09:32:07.778Z,572
2019-01-05T09:33:17.831Z,580
2019-01-05T09:34:27.915Z,568
2019-01-05T09:35:37.999Z,564
2019-01-05T09:36:48.065Z,564
2019-01-05T09:37:58.135Z,588
2019-01-05T09:39:08.192Z,576
2019-01-05T09:40:18.023Z,596
2019-01-05T09:41:28.093Z,620
2019-01-05T09:42:38.401Z,620
2019-01-05T09:43:48.466Z,580
2019-01-05T09:44:58.286Z,592
2019-01-05T09:46:09.435Z,628
2019-01-05T09:47:19.502Z,632
2019-01-05T09:48:29.552Z,648
2019-01-05T09:49:39.346Z,668
2019-01-05T09:50:49.406Z,684
2019-01-05T09:51:59.472Z,696
2019-01-05T09:53:09.551Z,712
2019-01-05T09:54:19.583Z,700
2019-01-05T09:55:29.647Z,672
2019-01-05T09:56:39.710Z,632
2019-01-05T09:57:49.242Z,632
2019-01-05T09:58:59.299Z,632
2019-01-05T10:00:10.266Z,676
2019-01-05T10:01:20.503Z,728
2019-01-05T10:02:30.568Z,744
2019-01-05T10:03:40.638Z,808
2019-01-05T10:04:50.494Z,868
2019-01-05T10:06:01.392Z,904
2019-01-05T10:07:11.465Z,924
2019-01-05T10:08:21.542Z,956
2019-01-05T10:09:31.342Z,944
2019-01-05T10:10:41.155Z,992
2019-01-05T10:11:51.217Z,1052
2019-01-05T10:13:02.102Z,1152
2019-01-05T10:14:12.002Z,1152
2019-01-05T10:15:22.317Z,1164
2019-01-05T10:16:32.147Z,1236
2019-01-05T10:17:42.212Z,1296
2019-01-05T10:18:52.297Z,1300
2019-01-05T10:20:02.370Z,1200
2019-01-05T10:21:12.415Z,1100
2019-01-05T10:22:22.301Z,1044
2019-01-05T10:23:32.370Z,1048
2019-01-05T10:24:42.445Z,1028
2019-01-05T10:25:52.514Z,1124
2019-01-05T10:27:02.581Z,1220
2019-01-05T10:28:12.723Z,1212
2019-01-05T10:29:22.548Z,1248
2019-01-05T10:30:32.363Z,1220
2019-01-05T10:31:42.197Z,1192
2019-01-05T10:32:52.019Z,1244
2019-01-05T10:34:02.108Z,1148
2019-01-05T10:35:12.185Z,1296
2019-01-05T10:36:22.251Z,1300
2019-01-05T10:37:32.059Z,1212
2019-01-05T10:38:42.140Z,1188
2019-01-05T10:39:52.219Z,1212
2019-01-05T10:41:02.798Z,1288
2019-01-05T10:42:12.672Z,1328
2019-01-05T10:43:22.798Z,1344
2019-01-05T10:44:32.605Z,1320
2019-01-05T10:45:42.677Z,1248
2019-01-05T10:46:53.338Z,1160
2019-01-05T10:48:03.429Z,1164
2019-01-05T10:49:13.253Z,1060
2019-01-05T10:50:23.069Z,1040
2019-01-05T10:51:33.152Z,1016
2019-01-05T10:52:42.702Z,964
2019-01-05T10:53:52.537Z,916
2019-01-05T10:55:02.343Z,968
2019-01-05T10:56:12.407Z,952
2019-01-05T10:57:22.481Z,956
2019-01-05T10:58:32.562Z,948
2019-01-05T10:59:42.375Z,868
2019-01-05T11:00:52.192Z,872
2019-01-05T11:02:02.008Z,888
2019-01-05T11:03:12.074Z,920
2019-01-05T11:04:22.126Z,864
2019-01-05T11:05:31.970Z,872
2019-01-05T11:06:41.778Z,872
2019-01-05T11:07:51.831Z,872
2019-01-05T11:09:02.652Z,904
2019-01-05T11:10:12.716Z,920
2019-01-05T11:11:22.261Z,916
2019-01-05T11:12:32.118Z,912
2019-01-05T11:13:41.947Z,936
2019-01-05T11:14:52.078Z,912
2019-01-05T11:16:02.154Z,908
2019-01-05T11:17:12.225Z,916
2019-01-05T11:18:22.324Z,916
2019-01-05T11:19:32.166Z,932
2019-01-05T11:20:43.146Z,984
2019-01-05T11:21:53.213Z,976
2019-01-05T11:23:03.298Z,968
2019-01-05T11:24:13.362Z,948
2019-01-05T11:25:24.009Z,936
2019-01-05T11:26:34.079Z,908
2019-01-05T11:27:43.699Z,876
2019-01-05T11:28:53.504Z,892
2019-01-05T11:30:03.624Z,904
2019-01-05T11:31:13.710Z,928
2019-01-05T11:32:23.780Z,984
2019-01-05T11:33:33.909Z,1080
2019-01-05T11:34:43.973Z,1108
2019-01-05T11:35:53.821Z,1052
2019-01-05T11:37:03.665Z,1024
2019-01-05T11:38:13.754Z,1016
2019-01-05T11:39:23.832Z,976
2019-01-05T11:40:33.931Z,996
2019-01-05T11:41:44.011Z,1008
2019-01-05T11:42:54.133Z,1080
2019-01-05T11:44:03.956Z,1096
2019-01-05T11:45:14.164Z,1140
2019-01-05T11:46:24.312Z,1152
2019-01-05T11:47:34.391Z,1184
2019-01-05T11:48:44.470Z,1204
2019-01-05T11:49:54.549Z,1228
2019-01-05T11:51:04.389Z,1264
2019-01-05T11:52:14.505Z,1188
2019-01-05T11:53:24.671Z,1136
2019-01-05T11:54:34.765Z,1108
2019-01-05T11:55:44.860Z,1084
2019-01-05T11:56:54.954Z,1080
2019-01-05T11:58:04.775Z,1024
2019-01-05T11:59:14.858Z,868
2019-01-05T12:00:24.996Z,756
2019-01-05T12:01:34.569Z,724
2019-01-05T12:02:44.661Z,712
2019-01-05T12:03:54.763Z,692
2019-01-05T12:05:04.729Z,696
2019-01-05T12:06:14.612Z,696
2019-01-05T12:07:24.725Z,692
2019-01-05T12:08:34.586Z,764
2019-01-05T12:09:44.671Z,740
2019-01-05T12:10:54.872Z,684
2019-01-05T12:12:04.942Z,676
2019-01-05T12:13:15.303Z,664
2019-01-05T12:14:25.407Z,676
2019-01-05T12:15:35.540Z,648
2019-01-05T12:16:48.203Z,676
2019-01-05T12:17:58.026Z,684
2019-01-05T12:19:07.854Z,684
2019-01-05T12:20:17.680Z,732
2019-01-05T12:21:27.775Z,796
2019-01-05T12:22:37.855Z,892
2019-01-05T12:23:47.643Z,972
2019-01-05T12:24:57.733Z,1004
2019-01-05T12:26:08.497Z,996
2019-01-05T12:27:18.643Z,916
2019-01-05T12:28:28.702Z,804
2019-01-05T12:29:38.768Z,744
2019-01-05T12:30:48.867Z,732
2019-01-05T12:31:58.705Z,716
2019-01-05T12:33:08.794Z,712
2019-01-05T12:34:18.914Z,756
2019-01-05T12:35:28.987Z,824
2019-01-05T12:36:39.061Z,868
2019-01-05T12:37:48.878Z,1008
2019-01-05T12:38:58.966Z,1144
2019-01-05T12:40:09.053Z,1008
2019-01-05T12:41:19.146Z,900
2019-01-05T12:42:29.225Z,816
2019-01-05T12:43:39.303Z,756
2019-01-05T12:44:49.377Z,672
2019-01-05T12:45:59.453Z,628
2019-01-05T12:47:09.963Z,696
2019-01-05T12:48:19.782Z,860
2019-01-05T12:49:29.863Z,960
2019-01-05T12:50:39.653Z,1068
2019-01-05T12:51:49.763Z,1116
2019-01-05T12:52:59.839Z,1268
2019-01-05T12:54:09.915Z,1460
2019-01-05T12:55:20.013Z,1516
2019-01-05T12:56:30.087Z,1364
2019-01-05T12:57:39.634Z,1228
2019-01-05T12:58:49.706Z,1228
2019-01-05T12:59:59.799Z,1256
2019-01-05T13:01:09.955Z,1268
2019-01-05T13:02:19.759Z,1260
2019-01-05T13:03:29.824Z,1152
2019-01-05T13:04:39.933Z,1116
2019-01-05T13:05:49.999Z,1084
2019-01-05T13:07:00.078Z,968
2019-01-05T13:08:10.147Z,896
2019-01-05T13:09:20.225Z,856
2019-01-05T13:10:30.304Z,840
2019-01-05T13:11:40.124Z,848
2019-01-05T13:12:50.206Z,908
2019-01-05T13:14:00.517Z,888
2019-01-05T13:15:10.329Z,920
2019-01-05T13:16:20.406Z,984
2019-01-05T13:17:30.229Z,968
2019-01-05T13:18:40.367Z,940
2019-01-05T13:19:50.190Z,944
2019-01-05T13:20:59.990Z,1000
2019-01-05T13:22:10.073Z,984
2019-01-05T13:23:19.686Z,972
2019-01-05T13:24:29.777Z,896
2019-01-05T13:25:39.592Z,748
2019-01-05T13:26:49.396Z,664
2019-01-05T13:27:59.507Z,588
2019-01-05T13:29:10.251Z,524
2019-01-05T13:30:20.465Z,520
2019-01-05T13:31:30.541Z,536
2019-01-05T13:32:40.605Z,552
2019-01-05T13:33:50.407Z,520
2019-01-05T13:35:00.525Z,476
2019-01-05T13:36:10.596Z,444
2019-01-05T13:37:20.660Z,432
2019-01-05T13:38:30.741Z,452
2019-01-05T13:39:40.538Z,432
2019-01-05T13:40:50.671Z,428
2019-01-05T13:42:00.743Z,396
2019-01-05T13:43:10.810Z,384
2019-01-05T13:44:21.794Z,384
2019-01-05T13:45:31.889Z,368
2019-01-05T13:46:41.711Z,392
2019-01-05T13:47:51.805Z,412
2019-01-05T13:49:01.874Z,392
2019-01-05T13:50:11.720Z,424
2019-01-05T13:51:21.802Z,428
2019-01-05T13:52:31.890Z,468
2019-01-05T13:53:41.947Z,496
2019-01-05T13:54:52.021Z,472
2019-01-05T13:56:02.116Z,436
2019-01-05T13:57:12.197Z,420
2019-01-05T13:58:22.273Z,388
2019-01-05T13:59:32.376Z,364
2019-01-05T14:00:42.465Z,352
2019-01-05T14:01:52.553Z,364
2019-01-05T14:03:02.371Z,376
2019-01-05T14:04:12.501Z,372
2019-01-05T14:05:22.334Z,396
2019-01-05T14:06:32.425Z,444
2019-01-05T14:07:42.526Z,464
2019-01-05T14:08:52.604Z,536
2019-01-05T14:10:03.802Z,644
2019-01-05T14:11:13.902Z,640
2019-01-05T14:12:23.745Z,612
2019-01-05T14:13:33.622Z,628
2019-01-05T14:14:43.697Z,588
2019-01-05T14:15:53.772Z,572
2019-01-05T14:17:03.838Z,536
2019-01-05T14:18:14.139Z,488
2019-01-05T14:19:24.225Z,412
2019-01-05T14:20:34.316Z,372
2019-01-05T14:21:44.146Z,348
2019-01-05T14:22:54.230Z,308
2019-01-05T14:24:04.281Z,316
2019-01-05T14:25:14.110Z,320
2019-01-05T14:26:25.166Z,268
2019-01-05T14:27:34.749Z,220
2019-01-05T14:28:44.560Z,208
2019-01-05T14:29:54.629Z,192
2019-01-05T14:31:04.766Z,192
2019-01-05T14:32:14.836Z,200
2019-01-05T14:33:24.655Z,212
2019-01-05T14:34:34.498Z,208
2019-01-05T14:35:44.314Z,212
2019-01-05T14:36:54.390Z,224
2019-01-05T14:38:04.443Z,232
2019-01-05T14:39:14.501Z,248
2019-01-05T14:40:24.566Z,272
2019-01-05T14:41:34.653Z,256
2019-01-05T14:42:44.732Z,224
2019-01-05T14:43:54.833Z,212
2019-01-05T14:45:04.976Z,204
2019-01-05T14:46:14.828Z,168
2019-01-05T14:47:24.902Z,132
2019-01-05T14:48:35.036Z,112
2019-01-05T14:49:45.121Z,96
2019-01-05T14:50:55.197Z,88
2019-01-05T14:52:05.906Z,84
2019-01-05T14:53:15.990Z,72
2019-01-05T14:54:26.060Z,68
2019-01-05T14:55:35.627Z,80
2019-01-05T14:56:45.768Z,84
2019-01-05T14:57:55.593Z,84
2019-01-05T14:59:05.671Z,68
2019-01-05T15:00:16.281Z,52
2019-01-05T15:01:26.513Z,48
2019-01-05T15:02:36.618Z,56
2019-01-05T15:03:46.709Z,56
2019-01-05T15:04:56.857Z,52
2019-01-05T15:06:06.926Z,48
2019-01-05T15:07:16.780Z,44
2019-01-05T15:08:26.930Z,40
2019-01-05T15:09:37.011Z,32
2019-01-05T15:10:47.099Z,24
2019-01-05T15:11:57.180Z,20
2019-01-05T15:13:06.988Z,20
2019-01-05T15:14:17.058Z,20
2019-01-05T15:15:26.901Z,20
2019-01-05T15:16:36.712Z,20
2019-01-05T15:17:47.643Z,20
2019-01-05T15:18:57.709Z,16
2019-01-05T15:20:07.774Z,12
2019-01-05T15:21:17.851Z,12
2019-01-05T15:22:27.928Z,8
2019-01-05T15:23:38.021Z,8
2019-01-05T15:24:47.841Z,12
2019-01-05T15:25:57.654Z,8
2019-01-05T15:27:07.749Z,8
2019-01-05T15:28:17.840Z,4
2019-01-05T15:29:27.906Z,4
2019-01-05T15:30:38.018Z,4
2019-01-05T15:31:48.103Z,0
2019-01-05T15:32:58.207Z,4
2019-01-05T15:34:08.279Z,4
2019-01-05T15:35:18.385Z,0
2019-01-05T15:36:29.078Z,0
2019-01-05T15:37:39.150Z,0
2019-01-05T15:38:49.233Z,0
2019-01-05T15:39:59.327Z,0
2019-01-05T15:41:09.315Z,0
2019-01-05T15:42:19.404Z,0
2019-01-05T15:43:29.212Z,0
2019-01-05T15:44:39.286Z,0
2019-01-05T15:45:49.129Z,0
2019-01-05T15:46:59.304Z,0
2019-01-05T15:48:09.120Z,0
2019-01-05T15:49:19.204Z,0
2019-01-05T15:50:29.264Z,0
2019-01-05T15:51:39.365Z,0
2019-01-05T15:52:49.472Z,0
2019-01-05T15:53:59.532Z,0
2019-01-05T15:55:10.969Z,0
2019-01-05T15:56:21.069Z,0
2019-01-05T15:57:31.141Z,0
2019-01-05T15:58:41.205Z,0
2019-01-05T15:59:51.300Z,0
2019-01-05T16:01:01.117Z,0
2019-01-05T16:02:10.984Z,0
2019-01-05T16:03:20.811Z,0
2019-01-05T16:04:34.530Z,0
2019-01-05T16:05:44.609Z,0
2019-01-05T16:06:54.698Z,0
2019-01-05T16:08:06.083Z,0
2019-01-05T16:09:16.186Z,0
2019-01-05T16:10:26.300Z,0
2019-01-05T16:11:36.369Z,0
2019-01-05T16:12:47.451Z,0
2019-01-05T16:13:57.570Z,0
2019-01-05T16:15:07.682Z,0
2019-01-05T16:16:17.833Z,0
2019-01-05T16:17:27.889Z,0
2019-01-05T16:18:37.971Z,0
2019-01-05T16:19:47.547Z,0
2019-01-05T16:20:57.648Z,0
2019-01-05T16:22:07.516Z,0
2019-01-05T16:23:17.622Z,0
2019-01-05T16:24:27.736Z,0
2019-01-05T16:25:37.827Z,0
2019-01-05T16:26:47.688Z,0
2019-01-05T16:27:57.566Z,0
2019-01-05T16:29:07.623Z,0
2019-01-05T16:30:17.687Z,0
2019-01-05T16:31:27.744Z,0
2019-01-05T16:32:37.838Z,0
2019-01-05T16:33:47.931Z,0
2019-01-05T16:34:57.983Z,0
2019-01-05T16:36:10.610Z,0
2019-01-05T16:37:20.677Z,0
2019-01-05T16:38:30.763Z,0
2019-01-05T16:39:40.835Z,0
2019-01-05T16:40:50.677Z,0
2019-01-05T16:42:00.774Z,0
2019-01-05T16:43:10.357Z,0
2019-01-05T16:44:20.181Z,0
2019-01-05T16:45:30.652Z,0
2019-01-05T16:46:40.811Z,0
2019-01-05T16:47:50.899Z,0
2019-01-05T16:49:01.006Z,0
2019-01-05T16:50:11.116Z,0
2019-01-05T16:51:21.010Z,0
2019-01-05T16:52:31.115Z,0
2019-01-05T16:53:41.227Z,0
2019-01-05T16:54:51.344Z,0
2019-01-05T16:56:01.444Z,0
2019-01-05T16:57:11.759Z,0
2019-01-05T16:58:21.934Z,0
2019-01-05T16:59:32.149Z,0
2019-01-05T17:00:42.041Z,0
2019-01-05T17:01:51.921Z,0
2019-01-05T17:03:02.071Z,0
2019-01-05T17:04:12.174Z,0
2019-01-05T17:05:22.252Z,0
2019-01-05T17:06:32.075Z,0
2019-01-05T17:07:42.181Z,0